Time;durP1;ratioP1;P1;durP2;ratioP2;P2;SDS_P1;SDS_P2;PMS_P1;PMS_P2;Temp;Humidity;BMP_temperature;BMP_pressure;BME280_temperature;BME280_humidity;BME280_pressure;Samples;Min_cycle;Max_cycle;Signal;HPM_P1;HPM_P2
2023/07/14 00:01:45;;;;;;;7.30;5.90;;;;;;;16.14;95.83;96810.96;108030;1276;25653;-73
2023/07/14 00:04:21;;;;;;;6.00;5.40;;;;;;;16.15;95.84;96811.84;108083;1283;22516;-73
2023/07/14 00:06:53;;;;;;;7.90;6.10;;;;;;;16.16;95.86;96815.84;108013;1283;25426;-73
2023/07/14 00:09:26;;;;;;;6.10;5.00;;;;;;;16.16;95.73;96814.11;108046;1281;25124;-73
2023/07/14 00:11:58;;;;;;;6.70;5.90;;;;;;;16.17;95.73;96813.39;108058;1283;22544;-72
2023/07/14 00:14:29;;;;;;;7.40;5.30;;;;;;;16.20;95.62;96813.30;108056;1283;22580;-73
2023/07/14 00:17:03;;;;;;;6.10;5.50;;;;;;;16.19;95.54;96811.16;108000;1270;25003;-73
2023/07/14 00:19:34;;;;;;;6.20;5.60;;;;;;;16.19;95.39;96806.94;107995;1276;23014;-73
2023/07/14 00:22:12;;;;;;;6.60;5.40;;;;;;;16.18;95.34;96810.91;107978;1279;22558;-73
2023/07/14 00:24:48;;;;;;;6.30;5.80;;;;;;;16.16;95.23;96810.96;108056;1283;22541;-72
2023/07/14 00:27:24;;;;;;;5.90;5.30;;;;;;;16.15;95.25;96809.14;108015;1283;23082;-73
2023/07/14 00:29:57;;;;;;;7.30;6.20;;;;;;;16.12;95.18;96811.23;108146;1280;25416;-73
2023/07/14 00:32:30;;;;;;;6.70;6.10;;;;;;;16.09;95.14;96809.72;107890;1283;22530;-73
2023/07/14 00:35:02;;;;;;;5.60;5.00;;;;;;;16.10;95.36;96809.23;107956;1283;22532;-73
2023/07/14 00:37:33;;;;;;;6.90;6.20;;;;;;;16.12;95.53;96812.45;107908;1283;23002;-73
2023/07/14 00:40:08;;;;;;;8.80;5.40;;;;;;;16.14;95.54;96811.31;107901;1275;22548;-73
2023/07/14 00:42:40;;;;;;;7.10;5.90;;;;;;;16.13;95.47;96812.03;107916;1283;25396;-73
2023/07/14 00:45:17;;;;;;;6.20;5.60;;;;;;;16.12;95.48;96811.15;107951;1283;22538;-73
2023/07/14 00:47:52;;;;;;;6.50;5.80;;;;;;;16.12;95.56;96805.95;107912;1283;22546;-73
2023/07/14 00:50:33;;;;;;;7.10;6.40;;;;;;;16.10;95.51;96801.98;107923;1283;22547;-73
2023/07/14 00:53:07;;;;;;;6.30;5.60;;;;;;;16.11;95.48;96801.27;107897;1283;22554;-73
2023/07/14 00:55:45;;;;;;;8.10;6.00;;;;;;;16.11;95.54;96803.46;107919;1262;24202;-73
2023/07/14 00:58:19;;;;;;;6.60;5.50;;;;;;;16.11;95.57;96808.23;107911;1283;22575;-73
2023/07/14 01:01:05;;;;;;;6.00;5.40;;;;;;;16.10;95.29;96805.58;107917;1281;23499;-73
2023/07/14 01:03:40;;;;;;;7.00;6.00;;;;;;;16.08;95.43;96809.66;107921;1283;22521;-73
2023/07/14 01:06:18;;;;;;;6.90;5.80;;;;;;;16.07;95.45;96810.38;107887;1281;25366;-73
2023/07/14 01:08:55;;;;;;;6.30;5.40;;;;;;;16.06;95.51;96811.89;107868;1282;22551;-73
2023/07/14 01:11:32;;;;;;;7.60;5.40;;;;;;;16.06;95.50;96812.02;107845;1282;22544;-73
2023/07/14 01:14:09;;;;;;;6.20;5.60;;;;;;;16.05;95.58;96802.88;107908;1282;22542;-73
2023/07/14 01:16:41;;;;;;;7.30;6.50;;;;;;;16.03;95.49;96801.19;107922;1282;25264;-73
2023/07/14 01:19:29;;;;;;;7.40;6.40;;;;;;;16.02;95.49;96812.20;107929;1282;25273;-73
2023/07/14 01:22:09;;;;;;;7.10;6.30;;;;;;;16.00;95.62;96820.31;107940;1280;27806;-73
2023/07/14 01:24:50;;;;;;;7.30;6.20;;;;;;;16.00;95.55;96817.16;107913;1283;22570;-73
2023/07/14 01:27:25;;;;;;;7.80;6.00;;;;;;;15.97;95.40;96824.20;107957;1276;22556;-73
2023/07/14 01:29:57;;;;;;;8.50;6.80;;;;;;;15.92;95.14;96821.45;107938;1282;24437;-73
2023/07/14 01:32:37;;;;;;;7.20;6.20;;;;;;;15.87;95.20;96818.89;107898;1282;23520;-73
2023/07/14 01:35:12;;;;;;;6.60;5.90;;;;;;;15.85;95.37;96820.23;107986;1283;22539;-72
2023/07/14 01:37:49;;;;;;;6.10;5.60;;;;;;;15.81;95.19;96821.27;107996;1282;25252;-73
2023/07/14 01:40:23;;;;;;;6.70;5.50;;;;;;;15.74;94.99;96825.95;107948;1282;22535;-73
2023/07/14 01:43:00;;;;;;;5.70;5.20;;;;;;;15.69;95.04;96827.16;107943;1277;24256;-73
2023/07/14 01:45:40;;;;;;;6.20;5.60;;;;;;;15.64;95.05;96831.15;107937;1282;22533;-73
2023/07/14 01:48:21;;;;;;;6.40;5.60;;;;;;;15.60;95.23;96830.73;108019;1282;22566;-73
2023/07/14 01:50:57;;;;;;;7.80;6.20;;;;;;;15.58;95.15;96830.67;107860;1282;22636;-73
2023/07/14 01:53:37;;;;;;;6.70;5.70;;;;;;;15.54;95.09;96832.00;107914;1282;22650;-73
2023/07/14 01:56:14;;;;;;;6.90;6.20;;;;;;;15.49;95.01;96839.13;107903;1279;22554;-73
2023/07/14 01:58:56;;;;;;;6.00;5.40;;;;;;;15.42;94.98;96840.27;107918;1282;24932;-73
2023/07/14 02:01:29;;;;;;;5.60;5.10;;;;;;;15.42;95.29;96841.78;107930;1282;23067;-73
2023/07/14 02:04:08;;;;;;;6.40;5.70;;;;;;;15.42;95.45;96845.36;107952;1283;22543;-73
2023/07/14 02:06:40;;;;;;;7.10;5.80;;;;;;;15.46;95.73;96848.25;107989;1282;24167;-73
2023/07/14 02:09:20;;;;;;;5.80;5.20;;;;;;;15.48;95.76;96855.59;107885;1283;22545;-73
2023/07/14 02:11:59;;;;;;;6.10;5.50;;;;;;;15.52;96.02;96861.67;107911;1283;24603;-73
2023/07/14 02:14:37;;;;;;;7.40;6.00;;;;;;;15.53;95.95;96863.48;107922;1279;22547;-73
2023/07/14 02:17:17;;;;;;;6.30;5.70;;;;;;;15.54;95.97;96863.91;107910;1280;22566;-73
2023/07/14 02:19:49;;;;;;;6.70;5.60;;;;;;;15.54;95.84;96874.60;107973;1282;22568;-73
2023/07/14 02:22:22;;;;;;;6.00;5.40;;;;;;;15.53;95.81;96878.90;107956;1275;22536;-73
2023/07/14 02:24:55;;;;;;;5.80;5.20;;;;;;;15.54;95.90;96878.17;107959;1283;22572;-73
2023/07/14 02:27:26;;;;;;;7.30;6.10;;;;;;;15.55;96.01;96878.48;107976;1277;23206;-72
2023/07/14 02:30:12;;;;;;;7.40;5.20;;;;;;;15.56;95.98;96882.59;107971;1280;22527;-73
2023/07/14 02:32:50;;;;;;;6.40;5.80;;;;;;;15.58;95.91;96882.73;107969;1283;22550;-72
2023/07/14 02:35:30;;;;;;;7.10;5.70;;;;;;;15.59;95.95;96889.60;107954;1278;22598;-73
2023/07/14 02:38:03;;;;;;;6.50;5.20;;;;;;;15.65;96.19;96887.13;107886;1277;26481;-73
2023/07/14 02:40:38;;;;;;;5.50;4.90;;;;;;;15.71;96.17;96893.83;107998;1282;25387;-73
2023/07/14 02:43:13;;;;;;;5.50;4.90;;;;;;;15.74;96.25;96898.73;107986;1283;25252;-73
2023/07/14 02:45:48;;;;;;;5.60;4.60;;;;;;;15.77;96.26;96899.52;107971;1282;25265;-73
2023/07/14 02:48:27;;;;;;;5.80;5.20;;;;;;;15.81;96.23;96901.55;107975;1276;22553;-73
2023/07/14 02:50:59;;;;;;;5.50;4.90;;;;;;;15.84;96.22;96910.15;107937;1276;22548;-73
2023/07/14 02:53:30;;;;;;;6.30;5.70;;;;;;;15.83;95.82;96913.33;107953;1277;22540;-73
2023/07/14 02:56:03;;;;;;;6.50;5.90;;;;;;;15.77;95.81;96915.61;107961;1283;22525;-72
2023/07/14 02:58:34;;;;;;;5.20;4.70;;;;;;;15.72;95.93;96923.69;107959;1282;22765;-72
2023/07/14 03:01:06;;;;;;;5.50;5.00;;;;;;;15.69;95.98;96923.70;107934;1276;22538;-73
2023/07/14 03:03:39;;;;;;;7.00;6.10;;;;;;;15.70;96.17;96930.36;107950;1283;22556;-73
2023/07/14 03:06:13;;;;;;;5.80;5.30;;;;;;;15.71;96.25;96937.70;107966;1281;25495;-73
2023/07/14 03:08:46;;;;;;;6.20;5.60;;;;;;;15.71;96.11;96938.30;107974;1277;23748;-73
2023/07/14 03:11:18;;;;;;;10.70;6.10;;;;;;;15.72;96.11;96943.52;107940;1282;24274;-73
2023/07/14 03:13:49;;;;;;;6.60;5.70;;;;;;;15.71;96.08;96947.48;107926;1283;22589;-73
2023/07/14 03:16:20;;;;;;;6.40;5.50;;;;;;;15.73;96.04;96949.31;107948;1282;22535;-72
2023/07/14 03:18:51;;;;;;;7.50;5.50;;;;;;;15.73;95.88;96954.23;107963;1282;22618;-72
2023/07/14 03:21:25;;;;;;;6.80;5.70;;;;;;;15.72;95.73;96953.71;107921;1277;22531;-73
2023/07/14 03:23:58;;;;;;;6.00;5.40;;;;;;;15.70;95.73;96955.38;107950;1282;22555;-73
2023/07/14 03:26:30;;;;;;;6.20;5.60;;;;;;;15.64;95.35;96957.49;107981;1282;22550;-73
2023/07/14 03:29:01;;;;;;;7.00;5.60;;;;;;;15.56;95.37;96955.81;108018;1280;22557;-73
2023/07/14 03:31:32;;;;;;;6.80;5.60;;;;;;;15.53;95.55;96952.86;108037;1280;22531;-72
2023/07/14 03:34:03;;;;;;;6.30;5.20;;;;;;;15.52;95.61;96947.70;108050;1282;22544;-73
2023/07/14 03:36:37;;;;;;;6.20;5.00;;;;;;;15.53;95.70;96950.52;108089;1282;22530;-73
2023/07/14 03:39:26;;;;;;;5.60;5.10;;;;;;;15.52;95.66;96944.16;108032;1276;22555;-73
2023/07/14 03:41:59;;;;;;;7.20;5.90;;;;;;;15.53;95.74;96947.67;108055;1283;22585;-73
2023/07/14 03:44:31;;;;;;;6.00;5.50;;;;;;;15.54;95.84;96949.95;107958;1280;22554;-73
2023/07/14 03:47:04;;;;;;;6.10;5.50;;;;;;;15.57;95.89;96952.88;107911;1282;22537;-73
2023/07/14 03:49:37;;;;;;;8.50;5.70;;;;;;;15.61;95.97;96951.25;107931;1282;22575;-73
2023/07/14 03:52:09;;;;;;;5.20;4.70;;;;;;;15.65;95.95;96940.33;107936;1282;22569;-73
2023/07/14 03:54:40;;;;;;;5.40;4.90;;;;;;;15.67;95.67;96936.39;107920;1283;22529;-73
2023/07/14 03:57:11;;;;;;;5.80;4.60;;;;;;;15.67;95.69;96940.80;107939;1279;22546;-73
2023/07/14 03:59:45;;;;;;;5.20;4.40;;;;;;;15.70;95.63;96941.15;107960;1280;24434;-73
2023/07/14 04:02:16;;;;;;;6.30;4.70;;;;;;;15.73;95.67;96941.61;107928;1283;22527;-73
2023/07/14 04:04:50;;;;;;;7.50;4.80;;;;;;;15.76;95.52;96941.94;107959;1282;22526;-73
2023/07/14 04:07:21;;;;;;;5.10;4.10;;;;;;;15.80;95.56;96945.42;107951;1282;22573;-73
2023/07/14 04:09:53;;;;;;;4.60;4.20;;;;;;;15.84;95.59;96950.88;107975;1282;22530;-73
2023/07/14 04:12:24;;;;;;;5.00;4.00;;;;;;;15.89;95.48;96945.09;107920;1282;23951;-73
2023/07/14 04:14:55;;;;;;;4.20;3.80;;;;;;;15.92;95.32;96945.14;107953;1282;22590;-73
2023/07/14 04:17:31;;;;;;;4.40;4.00;;;;;;;15.97;95.14;96941.23;107941;1277;22527;-73
2023/07/14 04:20:03;;;;;;;5.50;4.30;;;;;;;16.01;95.00;96945.44;107936;1282;22534;-73
2023/07/14 04:22:35;;;;;;;5.20;4.10;;;;;;;16.09;95.09;96945.50;107942;1275;24257;-73
2023/07/14 04:25:09;;;;;;;4.40;4.00;;;;;;;16.18;94.98;96947.25;107946;1283;25309;-73
2023/07/14 04:27:40;;;;;;;5.30;4.60;;;;;;;16.25;94.84;96947.39;107995;1273;23779;-73
2023/07/14 04:30:13;;;;;;;4.40;3.90;;;;;;;16.31;94.55;96950.31;107967;1283;22646;-73
2023/07/14 04:32:44;;;;;;;4.10;3.70;;;;;;;16.38;94.28;96947.96;107922;1274;22529;-72
2023/07/14 04:35:15;;;;;;;4.30;3.90;;;;;;;16.42;94.01;96949.14;107932;1283;22574;-73
2023/07/14 04:37:47;;;;;;;4.50;3.60;;;;;;;16.44;93.79;96946.79;107949;1283;22528;-73
2023/07/14 04:40:18;;;;;;;5.10;3.90;;;;;;;16.45;93.61;96943.16;107940;1282;22531;-73
2023/07/14 04:42:50;;;;;;;5.30;3.90;;;;;;;16.50;93.52;96944.54;107951;1277;22526;-73
2023/07/14 04:45:27;;;;;;;4.20;3.80;;;;;;;16.56;93.45;96948.92;107762;1282;201385;-75
2023/07/14 04:48:02;;;;;;;6.20;4.40;;;;;;;16.63;93.13;96952.82;107937;1282;22589;-75
2023/07/14 04:50:35;;;;;;;4.10;3.70;;;;;;;16.67;92.85;96954.02;107907;1282;22553;-75
2023/07/14 04:53:08;;;;;;;5.50;3.70;;;;;;;16.68;92.61;96956.52;107932;1277;22552;-75
2023/07/14 04:55:41;;;;;;;4.50;3.40;;;;;;;16.72;92.60;96958.00;107970;1282;22551;-75
2023/07/14 04:58:14;;;;;;;4.20;3.60;;;;;;;16.79;92.48;96963.30;107979;1282;22527;-75
2023/07/14 05:00:47;;;;;;;6.10;3.80;;;;;;;16.87;92.30;96959.48;107905;1283;22555;-76
2023/07/14 05:03:18;;;;;;;4.80;3.80;;;;;;;16.96;92.06;96956.52;107952;1282;22525;-75
2023/07/14 05:05:51;;;;;;;4.10;3.40;;;;;;;17.03;91.94;96959.58;107938;1282;25249;-75
2023/07/14 05:08:23;;;;;;;6.00;4.10;;;;;;;17.11;91.59;96964.92;107896;1283;24233;-75
2023/07/14 05:10:54;;;;;;;4.50;3.60;;;;;;;17.20;91.54;96972.16;107914;1279;23759;-74
2023/07/14 05:13:25;;;;;;;5.80;3.50;;;;;;;17.29;91.36;96977.38;107915;1282;22527;-75
2023/07/14 05:15:58;;;;;;;4.40;3.30;;;;;;;17.43;91.13;96973.50;107922;1275;22523;-75
2023/07/14 05:18:29;;;;;;;4.70;3.20;;;;;;;17.69;92.06;96971.80;107954;1283;22530;-75
2023/07/14 05:21:05;;;;;;;4.40;3.30;;;;;;;18.24;92.87;96974.00;107903;1282;22546;-75
2023/07/14 05:23:37;;;;;;;3.90;3.20;;;;;;;18.89;92.59;96972.33;107935;1277;22543;-75
2023/07/14 05:26:09;;;;;;;3.00;2.70;;;;;;;19.57;91.64;96969.40;107927;1279;22576;-75
2023/07/14 05:28:41;;;;;;;3.20;2.80;;;;;;;19.96;88.77;96964.30;108000;1277;22545;-75
2023/07/14 05:31:12;;;;;;;5.00;3.10;;;;;;;19.99;86.69;96964.73;107985;1282;26261;-75
2023/07/14 05:33:43;;;;;;;4.40;3.10;;;;;;;20.15;86.38;96970.13;108002;1280;22528;-75
2023/07/14 05:36:15;;;;;;;3.40;3.10;;;;;;;20.17;85.21;96976.23;108011;1275;23165;-75
2023/07/14 05:38:46;;;;;;;3.80;3.10;;;;;;;20.39;84.80;96982.73;107981;1282;22623;-75
2023/07/14 05:41:17;;;;;;;3.20;3.00;;;;;;;20.44;83.11;96983.94;107916;1276;22534;-74
2023/07/14 05:43:49;;;;;;;3.20;2.80;;;;;;;20.36;82.84;96982.65;108005;1261;24269;-75
2023/07/14 05:46:23;;;;;;;3.50;3.00;;;;;;;20.23;81.63;96983.27;107980;1280;25408;-74
2023/07/14 05:48:57;;;;;;;3.60;2.90;;;;;;;20.11;82.20;96989.48;108038;1276;26624;-75
2023/07/14 05:51:28;;;;;;;3.40;2.60;;;;;;;20.45;82.63;96991.67;108066;1282;22550;-75
2023/07/14 05:54:02;;;;;;;3.70;2.90;;;;;;;20.81;82.00;96988.20;107999;1283;22718;-74
2023/07/14 05:56:34;;;;;;;4.10;2.70;;;;;;;20.93;80.91;96990.73;107959;1282;22579;-75
2023/07/14 05:59:12;;;;;;;4.10;2.80;;;;;;;20.90;80.19;96986.54;107974;1282;22533;-75
2023/07/14 06:01:47;;;;;;;3.30;3.00;;;;;;;20.87;79.58;96988.25;107951;1276;50814;-75
2023/07/14 06:04:19;;;;;;;3.20;2.80;;;;;;;20.75;79.50;96989.60;107984;1283;22538;-74
2023/07/14 06:06:51;;;;;;;4.90;3.30;;;;;;;20.82;79.93;96988.54;108012;1282;22528;-75
2023/07/14 06:09:22;;;;;;;4.50;3.10;;;;;;;21.02;79.34;96980.80;107835;1275;22537;-74
2023/07/14 06:11:59;;;;;;;4.60;2.80;;;;;;;21.27;79.53;96981.84;108025;1282;22533;-74
2023/07/14 06:14:34;;;;;;;4.40;2.40;;;;;;;21.64;79.15;96987.81;107988;1282;22550;-75
2023/07/14 06:17:13;;;;;;;3.60;2.60;;;;;;;21.94;78.29;96992.17;108029;1277;22556;-74
2023/07/14 06:19:47;;;;;;;3.30;3.00;;;;;;;22.24;77.75;96993.02;107991;1282;22535;-74
2023/07/14 06:22:22;;;;;;;3.70;2.60;;;;;;;22.58;77.34;96999.34;107972;1282;25247;-74
2023/07/14 06:24:56;;;;;;;2.70;2.50;;;;;;;22.86;76.47;96996.98;107966;1276;25248;-75
2023/07/14 06:27:33;;;;;;;3.60;2.70;;;;;;;23.06;75.38;96996.41;108034;1282;22545;-74
2023/07/14 06:30:08;;;;;;;3.50;2.80;;;;;;;23.25;74.43;96997.86;107966;1280;25333;-75
2023/07/14 06:32:43;;;;;;;3.30;2.50;;;;;;;23.40;73.81;96997.29;108022;1275;22543;-75
2023/07/14 06:35:17;;;;;;;3.50;2.40;;;;;;;23.64;73.17;96996.31;107998;1279;22538;-75
2023/07/14 06:37:55;;;;;;;4.10;2.50;;;;;;;23.80;72.36;96991.55;107975;1282;22582;-74
2023/07/14 06:40:29;;;;;;;3.00;2.80;;;;;;;23.97;71.93;96986.80;107911;1282;22580;-74
2023/07/14 06:43:02;;;;;;;2.70;2.00;;;;;;;24.19;71.39;96988.25;107877;1282;22535;-74
2023/07/14 06:45:34;;;;;;;3.10;2.50;;;;;;;24.33;70.43;96990.54;107893;1277;22540;-74
2023/07/14 06:48:06;;;;;;;2.90;2.40;;;;;;;24.39;69.87;96992.46;107914;1275;22583;-74
2023/07/14 06:50:44;;;;;;;3.50;2.50;;;;;;;24.47;69.29;96986.17;107995;1275;22533;-74
2023/07/14 06:53:15;;;;;;;3.50;2.70;;;;;;;24.41;68.40;96984.36;107806;1277;22527;-75
2023/07/14 06:55:51;;;;;;;2.90;2.00;;;;;;;24.39;68.16;96984.88;107876;1281;22580;-75
2023/07/14 06:58:26;;;;;;;3.20;2.40;;;;;;;24.53;67.83;96984.89;107861;1275;22535;-74
2023/07/14 07:00:58;;;;;;;2.60;2.40;;;;;;;24.33;66.80;96991.08;107862;1274;22650;-74
2023/07/14 07:03:29;;;;;;;3.50;2.40;;;;;;;23.89;66.37;96993.04;107896;1274;22530;-75
2023/07/14 07:06:05;;;;;;;3.10;2.80;;;;;;;23.70;66.94;96993.35;107872;1280;25214;-75
2023/07/14 07:08:39;;;;;;;3.80;2.50;;;;;;;23.71;66.89;96992.29;107859;1277;25305;-74
2023/07/14 07:11:17;;;;;;;3.70;2.50;;;;;;;23.93;67.30;96993.52;107888;1283;24314;-75
2023/07/14 07:13:50;;;;;;;2.80;2.50;;;;;;;24.24;66.88;96992.37;107900;1280;22952;-74
2023/07/14 07:16:21;;;;;;;2.50;2.30;;;;;;;24.45;66.45;96993.88;107888;1277;22669;-75
2023/07/14 07:18:53;;;;;;;4.10;2.70;;;;;;;24.70;66.54;96996.66;107913;1283;22545;-74
2023/07/14 07:21:24;;;;;;;3.00;2.60;;;;;;;24.87;65.36;96996.89;107888;1282;31531;-74
2023/07/14 07:24:00;;;;;;;2.20;2.00;;;;;;;24.87;64.93;96994.70;107942;1282;22532;-75
2023/07/14 07:26:31;;;;;;;4.00;2.00;;;;;;;24.99;64.76;96998.64;107024;1275;22599;-76
2023/07/14 07:29:03;;;;;;;3.10;2.40;;;;;;;24.97;63.92;96996.58;107945;1282;22547;-76
2023/07/14 07:31:34;;;;;;;4.10;2.30;;;;;;;25.03;64.28;96999.56;107886;1279;24445;-76
2023/07/14 07:34:08;;;;;;;3.80;2.20;;;;;;;25.16;63.78;96997.23;107919;1282;22960;-75
2023/07/14 07:36:39;;;;;;;3.80;2.40;;;;;;;25.33;63.47;97000.68;107943;1279;22527;-76
2023/07/14 07:39:10;;;;;;;5.60;2.40;;;;;;;25.40;62.71;97000.95;107918;1277;23237;-75
2023/07/14 07:41:42;;;;;;;2.50;2.20;;;;;;;25.50;62.30;96999.84;107825;1276;22530;-75
2023/07/14 07:44:13;;;;;;;3.00;2.40;;;;;;;25.64;62.25;97003.84;107844;1275;22622;-75
2023/07/14 07:46:44;;;;;;;3.30;2.30;;;;;;;25.79;62.00;97000.83;107929;1275;23232;-75
2023/07/14 07:49:17;;;;;;;2.20;2.00;;;;;;;25.54;61.13;97003.33;107764;1275;22558;-75
2023/07/14 07:51:49;;;;;;;5.50;2.50;;;;;;;25.70;61.81;97007.98;107797;1282;22541;-73
2023/07/14 07:54:21;;;;;;;3.10;2.30;;;;;;;25.91;61.64;97008.66;107923;1280;24014;-74
2023/07/14 07:56:52;;;;;;;4.80;2.70;;;;;;;25.99;60.67;97004.88;107924;1279;24290;-74
2023/07/14 07:59:24;;;;;;;2.40;2.00;;;;;;;26.01;60.83;97007.56;107911;1276;22530;-74
2023/07/14 08:01:55;;;;;;;4.50;2.20;;;;;;;26.19;60.88;97011.74;107889;1276;22549;-73
2023/07/14 08:04:30;;;;;;;4.50;2.60;;;;;;;26.30;60.73;97016.30;107918;1275;23647;-74
2023/07/14 08:07:05;;;;;;;3.30;2.30;;;;;;;26.46;60.36;97011.53;107913;1282;22530;-74
2023/07/14 08:09:37;;;;;;;4.60;2.40;;;;;;;26.40;59.51;97011.60;107898;1282;22545;-73
2023/07/14 08:12:13;;;;;;;4.20;2.00;;;;;;;26.17;59.18;97008.23;107874;1282;22528;-74
2023/07/14 08:15:00;;;;;;;3.80;2.50;;;;;;;26.07;59.10;97005.76;107936;1282;25454;-74
2023/07/14 08:17:32;;;;;;;2.80;2.40;;;;;;;25.76;58.48;97002.25;107894;1282;22534;-74
2023/07/14 08:20:04;;;;;;;3.70;2.30;;;;;;;25.50;58.31;97006.67;107838;1283;25251;-74
2023/07/14 08:22:35;;;;;;;4.10;2.40;;;;;;;25.70;59.41;97006.20;107852;1282;22539;-73
2023/07/14 08:25:10;;;;;;;4.00;2.40;;;;;;;25.92;58.72;97008.77;107880;1283;22541;-74
2023/07/14 08:27:43;;;;;;;2.90;2.30;;;;;;;26.00;58.39;97003.97;107781;1282;24594;-74
2023/07/14 08:30:14;;;;;;;2.60;2.20;;;;;;;26.03;58.35;97001.45;107882;1283;22548;-73
2023/07/14 08:32:49;;;;;;;5.00;2.10;;;;;;;26.07;58.01;97004.15;107881;1282;23444;-74
2023/07/14 08:35:23;;;;;;;3.30;2.40;;;;;;;26.15;57.76;97002.59;107893;1276;22585;-73
2023/07/14 08:37:55;;;;;;;7.70;2.70;;;;;;;26.30;57.88;97005.19;107887;1283;22546;-73
2023/07/14 08:40:31;;;;;;;2.30;2.00;;;;;;;26.40;57.05;97004.46;107810;1282;23620;-73
2023/07/14 08:43:19;;;;;;;4.80;2.60;;;;;;;26.31;56.71;97000.70;107886;1275;22545;-74
2023/07/14 08:45:56;;;;;;;4.10;2.30;;;;;;;26.18;56.57;96996.73;107870;1274;22530;-74
2023/07/14 08:48:38;;;;;;;3.40;2.10;;;;;;;26.14;55.66;96991.64;107869;1277;22609;-73
2023/07/14 08:51:18;;;;;;;3.90;2.20;;;;;;;25.96;55.08;96990.72;107867;1276;25470;-73
2023/07/14 08:54:01;;;;;;;3.50;2.60;;;;;;;25.71;54.81;96994.11;107857;1282;22609;-73
2023/07/14 08:56:38;;;;;;;2.90;2.20;;;;;;;25.54;54.95;96990.98;107832;1276;23093;-72
2023/07/14 08:59:22;;;;;;;3.00;2.20;;;;;;;25.34;55.31;96993.09;107918;1282;22939;-73
2023/07/14 09:01:57;;;;;;;4.50;2.10;;;;;;;25.29;55.31;96990.45;107862;1279;22583;-73
2023/07/14 09:04:32;;;;;;;4.80;2.40;;;;;;;25.28;55.55;96991.45;107818;1275;22546;-74
2023/07/14 09:07:05;;;;;;;5.00;2.40;;;;;;;25.25;55.12;96991.87;107886;1282;26497;-74
2023/07/14 09:09:40;;;;;;;3.10;2.30;;;;;;;25.04;54.82;96997.10;107853;1277;23011;-74
2023/07/14 09:12:23;;;;;;;2.80;2.10;;;;;;;25.08;55.68;96988.58;107856;1282;23497;-74
2023/07/14 09:15:00;;;;;;;3.30;2.10;;;;;;;25.11;55.53;96987.48;107868;1275;22527;-74
2023/07/14 09:17:44;;;;;;;5.30;2.20;;;;;;;25.05;54.82;96988.67;107864;1275;22567;-74
2023/07/14 09:20:38;;;;;;;6.00;2.40;;;;;;;25.03;54.65;96982.60;107877;1282;22954;-74
2023/07/14 09:23:25;;;;;;;2.10;1.80;;;;;;;24.66;53.50;96984.11;107913;1278;26423;-74
2023/07/14 09:26:05;;;;;;;3.80;1.70;;;;;;;24.61;54.06;96988.20;107895;1282;22537;-74
2023/07/14 09:28:43;;;;;;;3.30;1.80;;;;;;;24.71;54.74;96985.59;107856;1283;22531;-74
2023/07/14 09:31:31;;;;;;;5.30;2.30;;;;;;;24.90;54.37;96987.80;107923;1282;22818;-74
2023/07/14 09:34:10;;;;;;;3.40;1.80;;;;;;;24.98;53.96;96985.05;108005;1276;22531;-74
2023/07/14 09:36:43;;;;;;;2.20;1.80;;;;;;;24.96;53.08;96983.78;107980;1275;22531;-74
2023/07/14 09:39:22;;;;;;;3.60;1.70;;;;;;;24.89;53.18;96980.02;108034;1282;22576;-73
2023/07/14 09:41:56;;;;;;;2.20;1.60;;;;;;;24.89;53.04;96982.04;108753;1277;26504;-73
2023/07/14 09:44:30;;;;;;;3.10;1.80;;;;;;;25.09;53.17;96982.54;108739;1282;22546;-73
2023/07/14 09:47:04;;;;;;;3.80;1.80;;;;;;;25.27;52.92;96981.81;108121;1277;23797;-73
2023/07/14 09:49:40;;;;;;;2.80;1.60;;;;;;;25.42;52.61;96983.90;108010;1275;22573;-73
2023/07/14 09:52:20;;;;;;;3.30;1.70;;;;;;;25.40;52.43;96980.01;108017;1280;24956;-74
2023/07/14 09:54:59;;;;;;;4.40;1.60;;;;;;;25.25;51.73;96982.34;108060;1277;22963;-73
2023/07/14 09:57:33;;;;;;;2.20;1.50;;;;;;;25.01;51.17;96982.33;108047;1276;22641;-73
2023/07/14 10:00:19;;;;;;;2.30;1.50;;;;;;;24.77;50.97;96980.98;108035;1277;23820;-73
2023/07/14 10:03:08;;;;;;;3.80;1.70;;;;;;;24.62;51.16;96981.48;108011;1279;22638;-73
2023/07/14 10:05:57;;;;;;;3.90;1.50;;;;;;;24.53;51.79;96980.71;108030;1277;22556;-71
2023/07/14 10:08:33;;;;;;;2.60;1.90;;;;;;;24.58;52.33;96977.54;108012;1279;22524;-72
2023/07/14 10:11:22;;;;;;;9.10;6.40;;;;;;;24.43;51.49;96974.32;108069;1277;22950;-72
2023/07/14 10:14:00;;;;;;;3.20;2.20;;;;;;;24.22;51.67;96971.66;108043;1279;22611;-72
2023/07/14 10:16:44;;;;;;;5.50;2.20;;;;;;;24.21;52.08;96971.66;108025;1283;22583;-72
2023/07/14 10:19:19;;;;;;;3.90;2.10;;;;;;;24.07;51.25;96977.33;108120;1275;24270;-72
2023/07/14 10:21:57;;;;;;;4.80;2.30;;;;;;;23.96;51.96;96977.96;108046;1280;22589;-72
2023/07/14 10:24:31;;;;;;;4.90;2.20;;;;;;;23.90;52.09;96979.05;108119;1275;22585;-73
2023/07/14 10:27:11;;;;;;;2.80;2.10;;;;;;;23.94;52.09;96974.66;108135;1282;22546;-74
2023/07/14 10:29:50;;;;;;;2.20;1.90;;;;;;;24.06;52.32;96974.45;108063;1278;22546;-74
2023/07/14 10:32:41;;;;;;;3.90;2.60;;;;;;;24.21;52.34;96970.50;108025;1283;22534;-72
2023/07/14 10:35:18;;;;;;;2.40;2.20;;;;;;;24.22;51.89;96966.48;107976;1276;22582;-72
2023/07/14 10:37:59;;;;;;;2.70;2.20;;;;;;;24.29;52.29;96969.80;108032;1277;22527;-72
2023/07/14 10:40:38;;;;;;;5.40;2.00;;;;;;;24.45;51.67;96971.27;108017;1282;22567;-72
2023/07/14 10:43:18;;;;;;;4.50;2.00;;;;;;;24.52;51.50;96973.20;108021;1274;22537;-72
2023/07/14 10:45:53;;;;;;;5.30;2.40;;;;;;;24.59;51.09;96973.14;108038;1277;22530;-72
2023/07/14 10:48:31;;;;;;;4.70;2.10;;;;;;;24.63;50.79;96966.95;107902;1282;22534;-72
2023/07/14 10:51:29;;;;;;;4.40;2.20;;;;;;;24.54;50.55;96967.25;106483;1275;2253207;-73
2023/07/14 10:54:06;;;;;;;3.20;1.90;;;;;;;24.69;51.13;96968.36;108159;1277;22561;-72
2023/07/14 10:56:42;;;;;;;3.00;2.00;;;;;;;24.77;50.96;96968.19;108089;1275;25243;-72
2023/07/14 10:59:21;;;;;;;3.70;2.30;;;;;;;24.71;50.98;96965.70;108104;1282;22540;-72
2023/07/14 11:02:03;;;;;;;3.00;1.80;;;;;;;24.72;51.23;96962.37;107995;1276;22586;-72
2023/07/14 11:04:39;;;;;;;3.00;1.80;;;;;;;24.88;51.88;96964.48;108030;1281;22559;-72
2023/07/14 11:07:23;;;;;;;3.70;2.00;;;;;;;24.86;51.69;96962.23;108056;1277;22542;-72
2023/07/14 11:09:55;;;;;;;3.00;1.80;;;;;;;24.79;51.43;96961.96;108038;1282;25628;-72
2023/07/14 11:12:38;;;;;;;3.50;1.80;;;;;;;24.69;51.77;96960.24;108007;1277;22529;-72
2023/07/14 11:15:25;;;;;;;3.00;2.00;;;;;;;24.62;52.19;96965.38;108066;1283;22538;-73
2023/07/14 11:18:07;;;;;;;4.70;2.20;;;;;;;24.50;51.89;96964.46;108047;1276;25350;-72
2023/07/14 11:20:44;;;;;;;2.10;1.80;;;;;;;24.43;51.80;96959.00;107937;1278;22542;-73
2023/07/14 11:23:30;;;;;;;5.90;2.00;;;;;;;24.34;51.47;96957.20;107928;1270;22753;-72
2023/07/14 11:26:15;;;;;;;6.30;2.30;;;;;;;24.23;52.07;96955.42;107888;1277;23082;-72
2023/07/14 11:28:53;;;;;;;2.90;1.90;;;;;;;24.17;52.22;96953.76;107927;1282;24155;-72
2023/07/14 11:31:34;;;;;;;4.00;2.30;;;;;;;24.22;52.45;96952.70;107881;1282;25309;-72
2023/07/14 11:34:30;;;;;;;2.60;2.20;;;;;;;24.32;51.65;96955.30;107933;1279;24020;-72
2023/07/14 11:37:25;;;;;;;4.90;2.10;;;;;;;24.28;51.04;96949.94;107989;1282;22549;-71
2023/07/14 11:40:01;;;;;;;2.70;1.80;;;;;;;24.23;50.99;96950.02;107740;1277;22545;-71
2023/07/14 11:42:36;;;;;;;3.40;1.90;;;;;;;24.37;50.95;96949.45;108604;1280;22560;-71
2023/07/14 11:45:17;;;;;;;2.10;1.90;;;;;;;24.45;50.75;96944.39;107864;1277;22569;-72
2023/07/14 11:47:50;;;;;;;4.40;2.00;;;;;;;24.57;51.79;96942.14;107840;1277;22565;-71
2023/07/14 11:50:28;;;;;;;2.50;1.90;;;;;;;24.59;50.35;96937.45;107889;1282;22533;-71
2023/07/14 11:53:10;;;;;;;4.20;2.20;;;;;;;24.44;50.57;96928.19;107871;1283;22707;-71
2023/07/14 11:55:56;;;;;;;4.50;2.10;;;;;;;24.45;50.15;96933.77;107697;1276;22562;-72
2023/07/14 11:58:31;;;;;;;5.40;2.40;;;;;;;24.51;50.10;96930.35;107864;1275;25394;-71
2023/07/14 12:01:20;;;;;;;3.30;2.00;;;;;;;24.51;50.83;96928.41;107863;1276;22523;-71
2023/07/14 12:04:00;;;;;;;3.30;2.10;;;;;;;24.53;51.50;96924.34;107875;1276;22549;-71